Terminal Aerodrome Forecast
Issued by NWS

Home | Current Version | Previous Version | Text Only | Print | Product List | Glossary On
Versions: 1 2 3 4 5 6 7 8 9 10 11 12 13 14 15 16 17 18 19
000
FTUS41 KCAR 222300
TAFFVE
TAF
KFVE 222335Z 2300/2324 06008KT P6SM BKN110
     FM230300 06009KT P6SM BKN025
     FM230400 05009KT P6SM OVC015
     FM231200 05009KT P6SM OVC008
     FM231500 05010KT P6SM OVC015
     FM232100 05012KT 3SM -RA OVC008=

USA.gov is the U.S. government's official web portal to all federal, state and local government web resources and services.